Time;durP1;ratioP1;P1;durP2;ratioP2;P2;SDS_P1;SDS_P2;PMS_P1;PMS_P2;Temp;Humidity;BMP_temperature;BMP_pressure;BME280_temperature;BME280_humidity;BME280_pressure;Samples;Min_cycle;Max_cycle;Signal;HPM_P1;HPM_P2
2023/10/09 00:03:06;;;;;;;;;;;;;;;13.78;100.00;101951.63;5043569;28;1620;-78
2023/10/09 00:08:05;;;;;;;;;;;;;;;13.75;100.00;101941.41;5045304;28;1248;-77
2023/10/09 00:10:52;;;;;;;;;;;;;;;13.76;100.00;101937.88;5041201;28;1364;-78
2023/10/09 00:13:16;;;;;;;;;;;;;;;13.77;100.00;101934.34;5045346;28;1599;-77
2023/10/09 00:15:42;;;;;;;;;;;;;;;13.78;100.00;101925.56;5045746;28;1222;-77
2023/10/09 00:18:11;;;;;;;;;;;;;;;13.78;100.00;101930.78;5036797;28;1093;-77
2023/10/09 00:20:42;;;;;;;;;;;;;;;13.77;100.00;101930.91;5039691;28;1983;-79
2023/10/09 00:23:15;;;;;;;;;;;;;;;13.76;100.00;101927.47;5041130;28;1498;-79
2023/10/09 00:25:50;;;;;;;;;;;;;;;13.76;100.00;101926.59;5029976;28;1223;-78
2023/10/09 00:28:18;;;;;;;;;;;;;;;13.76;100.00;101930.06;5048825;28;1253;-78
2023/10/09 00:30:43;;;;;;;;;;;;;;;13.77;100.00;101931.72;5049970;28;1361;-77
2023/10/09 00:33:09;;;;;;;;;;;;;;;13.78;100.00;101932.56;5044649;28;1392;-78
2023/10/09 00:38:22;;;;;;;;;;;;;;;13.79;100.00;101932.41;5050003;28;1103;-77
2023/10/09 00:40:56;;;;;;;;;;;;;;;13.79;100.00;101937.63;5055908;28;1938;-77
2023/10/09 00:43:28;;;;;;;;;;;;;;;13.78;100.00;101924.72;5050203;28;1139;-78
2023/10/09 00:45:53;;;;;;;;;;;;;;;13.80;100.00;101928.84;5033982;28;1195;-77
2023/10/09 00:48:30;;;;;;;;;;;;;;;13.81;100.00;101929.69;5034215;28;1171;-81
2023/10/09 00:50:57;;;;;;;;;;;;;;;13.79;100.00;101931.59;5056017;28;997;-78
2023/10/09 00:53:30;;;;;;;;;;;;;;;13.79;100.00;101932.41;5038301;28;1313;-77
2023/10/09 00:55:57;;;;;;;;;;;;;;;13.80;100.00;101928.84;5055939;28;1078;-78
2023/10/09 00:58:26;;;;;;;;;;;;;;;13.80;100.00;101933.25;5053306;28;1195;-77
2023/10/09 01:00:52;;;;;;;;;;;;;;;13.80;100.00;101943.69;5057922;28;1890;-78
2023/10/09 01:05:51;;;;;;;;;;;;;;;13.81;100.00;101929.69;5052041;28;1205;-78
2023/10/09 01:08:25;;;;;;;;;;;;;;;13.80;100.00;101931.47;5036093;28;1317;-77
2023/10/09 01:10:56;;;;;;;;;;;;;;;13.80;100.00;101934.06;5032419;28;1271;-78
2023/10/09 01:13:27;;;;;;;;;;;;;;;13.80;100.00;101933.25;5031610;28;1406;-77
2023/10/09 01:15:52;;;;;;;;;;;;;;;13.80;100.00;101923.66;5051865;28;1124;-78
2023/10/09 01:18:19;;;;;;;;;;;;;;;13.80;100.00;101918.44;5050285;28;1158;-77
2023/10/09 01:20:45;;;;;;;;;;;;;;;13.80;100.00;101913.22;5050254;28;1898;-77
2023/10/09 01:23:11;;;;;;;;;;;;;;;13.80;100.00;101917.59;5049540;28;1606;-77
2023/10/09 01:25:45;;;;;;;;;;;;;;;13.82;100.00;101911.34;5033257;28;1204;-79
2023/10/09 01:28:15;;;;;;;;;;;;;;;13.82;100.00;101921.78;5031430;28;1521;-77
2023/10/09 01:30:41;;;;;;;;;;;;;;;13.84;100.00;101913.00;5047705;28;1201;-80
2023/10/09 01:33:15;;;;;;;;;;;;;;;13.86;100.00;101916.31;5049190;28;1316;-77
2023/10/09 01:35:47;;;;;;;;;;;;;;;13.86;100.00;101900.66;5053791;28;1217;-77
2023/10/09 01:38:14;;;;;;;;;;;;;;;13.88;100.00;101914.38;5037393;28;1515;-78
2023/10/09 01:40:40;;;;;;;;;;;;;;;13.89;100.00;101905.63;5036763;28;1897;-78
2023/10/09 01:43:09;;;;;;;;;;;;;;;13.90;100.00;101902.91;5054678;28;1281;-78
2023/10/09 01:45:41;;;;;;;;;;;;;;;13.92;100.00;101889.72;5036274;28;1332;-78
2023/10/09 01:48:08;;;;;;;;;;;;;;;13.93;100.00;101896.59;5036144;28;1199;-77
2023/10/09 01:50:35;;;;;;;;;;;;;;;13.94;100.00;101898.28;5051536;28;1153;-77
2023/10/09 01:53:05;;;;;;;;;;;;;;;13.95;100.00;101897.34;5032034;28;1168;-77
2023/10/09 01:55:34;;;;;;;;;;;;;;;13.98;100.00;101891.84;5050492;28;1168;-77
2023/10/09 01:58:05;;;;;;;;;;;;;;;13.99;100.00;101896.13;5052744;28;1394;-77
2023/10/09 02:00:30;;;;;;;;;;;;;;;14.01;100.00;101889.03;5043791;28;1981;-78
2023/10/09 02:02:55;;;;;;;;;;;;;;;14.03;100.00;101892.31;5029996;28;1526;-77
2023/10/09 02:07:58;;;;;;;;;;;;;;;14.05;100.00;101880.00;5047904;28;1260;-77
2023/10/09 02:13:09;;;;;;;;;;;;;;;14.08;100.00;101884.97;5047719;28;1244;-77
2023/10/09 02:18:26;;;;;;;;;;;;;;;14.12;100.00;101886.41;5047111;28;1145;-78
2023/10/09 02:23:56;;;;;;;;;;;;;;;14.16;100.00;101882.56;5050343;28;1216;-78
2023/10/09 02:26:19;;;;;;;;;;;;;;;14.18;100.00;101870.25;5049144;28;1105;-77
2023/10/09 02:28:52;;;;;;;;;;;;;;;14.19;100.00;101856.25;5050803;28;1306;-78
2023/10/09 02:31:22;;;;;;;;;;;;;;;14.20;100.00;101847.47;5048818;28;1703;-77
2023/10/09 02:33:48;;;;;;;;;;;;;;;14.22;100.00;101850.78;5033317;28;1214;-77
2023/10/09 02:36:13;;;;;;;;;;;;;;;14.21;100.00;101843.88;5047354;28;996;-77
2023/10/09 02:38:42;;;;;;;;;;;;;;;14.23;100.00;101842.00;5049709;28;1256;-77
2023/10/09 02:41:20;;;;;;;;;;;;;;;14.24;100.00;101848.88;5039194;28;1973;-78
2023/10/09 02:44:24;;;;;;;;;;;;;;;14.25;100.00;101855.75;5049429;28;1072;-77
2023/10/09 02:46:39;;;;;;;;;;;;;;;14.26;100.00;101857.41;5049298;28;1398;-78
2023/10/09 02:49:09;;;;;;;;;;;;;;;14.29;100.00;101851.13;5055615;28;1184;-77
2023/10/09 02:51:41;;;;;;;;;;;;;;;14.30;100.00;101852.78;5053690;28;1087;-78
2023/10/09 02:54:17;;;;;;;;;;;;;;;14.31;100.00;101852.63;5034599;23;1463;-75
2023/10/09 02:56:43;;;;;;;;;;;;;;;14.33;100.00;101842.06;5050052;28;1273;-74
2023/10/09 02:59:08;;;;;;;;;;;;;;;14.34;100.00;101838.53;5040388;28;1262;-76
2023/10/09 03:01:34;;;;;;;;;;;;;;;14.33;100.00;101832.44;5044051;28;1910;-76
2023/10/09 03:04:02;;;;;;;;;;;;;;;14.33;100.00;101814.19;5032782;28;1223;-74
2023/10/09 03:06:30;;;;;;;;;;;;;;;14.34;100.00;101817.66;5050132;28;1248;-74
2023/10/09 03:08:56;;;;;;;;;;;;;;;14.32;100.00;101815.16;5042903;28;1399;-76
2023/10/09 03:11:21;;;;;;;;;;;;;;;14.33;100.00;101822.00;5052532;28;1324;-75
2023/10/09 03:13:48;;;;;;;;;;;;;;;14.34;100.00;101823.69;5046100;28;1554;-74
2023/10/09 03:16:20;;;;;;;;;;;;;;;14.33;100.00;101832.44;5046268;28;1571;-75
2023/10/09 03:18:55;;;;;;;;;;;;;;;14.33;100.00;101824.63;5029612;28;1279;-74
2023/10/09 03:21:21;;;;;;;;;;;;;;;14.33;100.00;101821.19;5046932;28;1898;-75
2023/10/09 03:23:49;;;;;;;;;;;;;;;14.33;100.00;101821.19;5045479;28;1241;-74
2023/10/09 03:26:15;;;;;;;;;;;;;;;14.33;100.00;101803.75;5041543;28;1163;-74
2023/10/09 03:28:43;;;;;;;;;;;;;;;14.33;100.00;101800.31;5051440;28;1316;-74
2023/10/09 03:31:10;;;;;;;;;;;;;;;14.33;100.00;101806.34;5048429;28;1368;-75
2023/10/09 03:33:35;;;;;;;;;;;;;;;14.34;100.00;101818.47;5040796;28;1221;-74
2023/10/09 03:36:01;;;;;;;;;;;;;;;14.33;100.00;101819.41;5046858;28;1582;-75
2023/10/09 03:38:29;;;;;;;;;;;;;;;14.34;100.00;101823.69;5024741;28;1388;-74
2023/10/09 03:40:54;;;;;;;;;;;;;;;14.34;100.00;101808.03;5020175;28;1969;-74
2023/10/09 03:43:21;;;;;;;;;;;;;;;14.34;100.00;101805.44;5043012;28;1217;-76
2023/10/09 03:45:52;;;;;;;;;;;;;;;14.35;100.00;101804.47;5048128;28;1312;-77
2023/10/09 03:48:31;;;;;;;;;;;;;;;14.34;100.00;101802.00;5046584;28;1343;-74
2023/10/09 03:51:10;;;;;;;;;;;;;;;14.34;100.00;101797.59;5052555;28;996;-77
2023/10/09 03:53:42;;;;;;;;;;;;;;;14.36;100.00;101794.84;5046208;28;1139;-75
2023/10/09 03:56:11;;;;;;;;;;;;;;;14.36;100.00;101805.28;5054477;28;1155;-74
2023/10/09 03:58:39;;;;;;;;;;;;;;;14.35;100.00;101794.03;5045359;28;1252;-74
2023/10/09 04:01:07;;;;;;;;;;;;;;;14.37;100.00;101790.47;5042998;28;1882;-74
2023/10/09 04:03:35;;;;;;;;;;;;;;;14.34;100.00;101802.81;5048156;28;1220;-74
2023/10/09 04:06:00;;;;;;;;;;;;;;;14.34;100.00;101800.22;5040350;28;1249;-74
2023/10/09 04:08:29;;;;;;;;;;;;;;;14.35;100.00;101793.22;5047666;28;1194;-75
2023/10/09 04:11:01;;;;;;;;;;;;;;;14.34;100.00;101792.38;5041685;28;1346;-75
2023/10/09 04:13:33;;;;;;;;;;;;;;;14.35;100.00;101804.47;5040945;28;1225;-75
2023/10/09 04:15:59;;;;;;;;;;;;;;;14.38;100.00;101828.66;5042644;28;1595;-75
2023/10/09 04:18:32;;;;;;;;;;;;;;;14.39;100.00;101843.34;5032851;28;1306;-74
2023/10/09 04:23:59;;;;;;;;;;;;;;;14.41;100.00;101844.06;5046492;28;1314;-75
2023/10/09 04:26:25;;;;;;;;;;;;;;;14.42;100.00;101835.28;5046576;28;1346;-74
2023/10/09 04:28:52;;;;;;;;;;;;;;;14.43;100.00;101835.16;5044466;28;1233;-75
2023/10/09 04:31:21;;;;;;;;;;;;;;;14.45;100.00;101840.25;5043588;28;1302;-73
2023/10/09 04:34:34;;;;;;;;;;;;;;;14.47;100.00;101833.16;5043293;28;1343;-73
2023/10/09 04:36:46;;;;;;;;;;;;;;;14.49;100.00;101852.13;5035236;28;1328;-74
2023/10/09 04:44:22;;;;;;;;;;;;;;;14.52;100.00;101841.44;5054812;28;1008;-74
2023/10/09 04:49:49;;;;;;;;;;;;;;;14.52;100.00;101851.88;5052681;28;942;-73
2023/10/09 04:57:48;;;;;;;;;;;;;;;14.55;100.00;101833.34;5042357;28;1085;-74
2023/10/09 05:02:54;;;;;;;;;;;;;;;14.56;100.00;101827.16;5041956;28;1382;-75
2023/10/09 05:08:28;;;;;;;;;;;;;;;14.56;100.00;101801.06;5045358;28;1069;-73
2023/10/09 05:13:42;;;;;;;;;;;;;;;14.57;100.00;101821.00;5049337;28;1260;-74
2023/10/09 05:16:25;;;;;;;;;;;;;;;14.57;100.00;101834.91;5049262;28;1320;-74
2023/10/09 05:18:56;;;;;;;;;;;;;;;14.57;100.00;101839.28;5025194;28;1265;-74
2023/10/09 05:29:24;;;;;;;;;;;;;;;14.59;100.00;101838.19;5047076;28;1182;-74
2023/10/09 05:32:15;;;;;;;;;;;;;;;14.59;100.00;101832.16;5045747;28;1234;-74
2023/10/09 05:37:33;;;;;;;;;;;;;;;14.62;100.00;101826.66;5049111;28;1272;-74
2023/10/09 06:04:17;;;;;;;;;;;;;;;14.65;100.00;101860.38;5046373;28;1254;-75
2023/10/09 06:06:44;;;;;;;;;;;;;;;14.67;100.00;101881.94;5048854;28;1245;-76
2023/10/09 06:11:38;;;;;;;;;;;;;;;14.67;100.00;101894.19;5047735;28;1222;-74
2023/10/09 06:14:04;;;;;;;;;;;;;;;14.68;100.00;101881.00;5042889;28;1312;-75
2023/10/09 06:16:41;;;;;;;;;;;;;;;14.68;100.00;101878.41;5045967;28;1499;-76
2023/10/09 06:19:11;;;;;;;;;;;;;;;14.68;100.00;101899.28;5034662;28;1203;-75
2023/10/09 06:24:14;;;;;;;;;;;;;;;14.71;100.00;101883.34;5050485;28;1235;-77
2023/10/09 06:29:35;;;;;;;;;;;;;;;14.71;100.00;101859.84;5049582;28;1275;-76
2023/10/09 06:34:46;;;;;;;;;;;;;;;14.72;100.00;101843.22;5045778;28;1350;-76
2023/10/09 06:37:34;;;;;;;;;;;;;;;14.73;100.00;101834.44;5031931;28;1254;-76
2023/10/09 06:42:43;;;;;;;;;;;;;;;14.73;100.00;101855.31;5052500;28;1123;-75
2023/10/09 06:47:41;;;;;;;;;;;;;;;14.72;100.00;101853.66;5051953;28;1002;-76
2023/10/09 06:52:57;;;;;;;;;;;;;;;14.73;100.00;101851.88;5049993;28;1046;-75
2023/10/09 06:56:07;;;;;;;;;;;;;;;14.73;100.00;101850.09;5046441;28;1041;-75
2023/10/09 06:58:16;;;;;;;;;;;;;;;14.74;100.00;101841.34;5042647;28;1206;-75
2023/10/09 07:03:32;;;;;;;;;;;;;;;14.75;100.00;101835.16;5051168;28;1090;-75
2023/10/09 07:06:23;;;;;;;;;;;;;;;14.76;100.00;101834.19;5040136;28;1090;-75
2023/10/09 07:09:15;;;;;;;;;;;;;;;14.79;100.00;101877.50;5046257;28;1216;-75
2023/10/09 07:17:00;;;;;;;;;;;;;;;14.87;100.00;101877.72;5045544;28;1209;-76
2023/10/09 07:22:03;;;;;;;;;;;;;;;14.92;100.00;101904.28;5051030;28;1942;-76
2023/10/09 07:24:42;;;;;;;;;;;;;;;14.96;100.00;101908.28;5052698;28;1267;-78
2023/10/09 07:27:12;;;;;;;;;;;;;;;14.97;100.00;101909.13;5054944;28;1740;-78
2023/10/09 07:29:47;;;;;;;;;;;;;;;15.01;100.00;101915.72;5045977;28;1344;-78
2023/10/09 07:32:19;;;;;;;;;;;;;;;15.03;100.00;101916.44;5045814;28;1217;-75
2023/10/09 07:34:54;;;;;;;;;;;;;;;15.02;100.00;101907.75;5033660;28;1229;-75
2023/10/09 07:37:22;;;;;;;;;;;;;;;15.05;100.00;101904.06;5050129;28;1286;-75
2023/10/09 07:39:56;;;;;;;;;;;;;;;15.05;100.00;101902.28;5050213;28;1969;-75
2023/10/09 07:45:54;;;;;;;;;;;;;;;15.08;100.00;101906.41;5041039;28;1276;-78
2023/10/09 07:48:04;;;;;;;;;;;;;;;15.11;100.00;101893.13;5042228;28;1418;-76
2023/10/09 07:50:48;;;;;;;;;;;;;;;15.14;100.00;101861.50;5046450;28;1328;-75
2023/10/09 07:53:26;;;;;;;;;;;;;;;15.15;100.00;101855.31;5038849;28;1290;-76
2023/10/09 07:55:56;;;;;;;;;;;;;;;15.16;100.00;101838.69;5022947;28;1511;-76
2023/10/09 07:58:25;;;;;;;;;;;;;;;15.17;100.00;101837.72;5044705;28;1393;-76
2023/10/09 08:01:15;;;;;;;;;;;;;;;15.20;100.00;101841.88;5053893;28;1890;-78
2023/10/09 08:03:45;;;;;;;;;;;;;;;15.22;100.00;101829.50;5041558;28;1297;-78
2023/10/09 08:09:17;;;;;;;;;;;;;;;15.26;100.00;101810.81;5046788;28;1236;-75
2023/10/09 08:19:53;;;;;;;;;;;;;;;15.47;100.00;101838.66;5040477;28;1392;-78
2023/10/09 08:24:58;;;;;;;;;;;;;;;15.60;100.00;101870.66;5038601;28;1244;-76
2023/10/09 08:33:00;;;;;;;;;;;;;;;15.77;100.00;101888.38;5043305;28;1252;-78
2023/10/09 08:35:47;;;;;;;;;;;;;;;15.81;100.00;101900.19;5040731;28;1238;-78
2023/10/09 08:38:12;;;;;;;;;;;;;;;15.86;100.00;101886.72;5046166;28;1519;-75
2023/10/09 08:40:40;;;;;;;;;;;;;;;15.91;100.00;101893.22;5044386;28;1898;-75
2023/10/09 08:43:16;;;;;;;;;;;;;;;15.98;100.00;101895.28;5047072;28;1520;-76
2023/10/09 08:45:44;;;;;;;;;;;;;;;16.01;100.00;101900.28;5023954;28;1344;-75
2023/10/09 08:48:15;;;;;;;;;;;;;;;16.06;100.00;101898.91;5046556;28;1283;-75
2023/10/09 08:50:42;;;;;;;;;;;;;;;16.10;100.00;101915.16;5049149;28;1272;-78
2023/10/09 08:53:07;;;;;;;;;;;;;;;16.15;100.00;101912.97;5048930;28;1424;-78
2023/10/09 08:55:32;;;;;;;;;;;;;;;16.20;100.00;101913.38;5030048;28;1605;-78
2023/10/09 08:57:58;;;;;;;;;;;;;;;16.25;100.00;101913.81;5051071;28;1273;-78
2023/10/09 09:00:23;;;;;;;;;;;;;;;16.29;100.00;101917.81;5047345;28;1906;-75
2023/10/09 09:02:55;;;;;;;;;;;;;;;16.35;100.00;101916.44;5054643;28;1205;-78
2023/10/09 09:05:20;;;;;;;;;;;;;;;16.40;100.00;101917.69;5051389;28;1194;-78
2023/10/09 09:07:46;;;;;;;;;;;;;;;16.46;100.00;101922.38;5049300;28;1305;-79
2023/10/09 09:10:17;;;;;;;;;;;;;;;16.51;100.00;101926.38;5034671;28;1809;-75
2023/10/09 09:12:45;;;;;;;;;;;;;;;16.58;100.00;101932.72;5052357;28;1221;-76
2023/10/09 09:15:19;;;;;;;;;;;;;;;16.62;100.00;101936.72;5052236;28;1065;-76
2023/10/09 09:17:45;;;;;;;;;;;;;;;16.66;100.00;101938.94;5052614;28;1242;-76
2023/10/09 09:20:22;;;;;;;;;;;;;;;16.73;100.00;101939.22;5054733;28;1905;-76
2023/10/09 09:22:52;;;;;;;;;;;;;;;16.75;100.00;101947.78;5048976;28;1260;-79
2023/10/09 09:25:17;;;;;;;;;;;;;;;16.81;100.00;101942.00;5050900;28;1225;-79
2023/10/09 09:28:09;;;;;;;;;;;;;;;16.87;100.00;101944.06;5051350;28;1285;-79
2023/10/09 09:30:35;;;;;;;;;;;;;;;16.94;100.00;101942.53;5034728;28;1098;-76
2023/10/09 09:36:06;;;;;;;;;;;;;;;17.02;100.00;101948.88;5047404;28;1224;-79
2023/10/09 09:38:41;;;;;;;;;;;;;;;17.06;100.00;101950.25;5057666;28;1385;-78
2023/10/09 09:41:07;;;;;;;;;;;;;;;17.11;100.00;101953.28;5028749;28;1902;-79
2023/10/09 09:43:35;;;;;;;;;;;;;;;17.15;100.00;101952.03;5050679;28;1257;-77
2023/10/09 09:46:03;;;;;;;;;;;;;;;17.20;100.00;101947.19;5058890;28;1188;-79
2023/10/09 09:48:29;;;;;;;;;;;;;;;17.25;100.00;101960.69;5050589;28;1061;-78
2023/10/09 09:50:54;;;;;;;;;;;;;;;17.27;100.00;101964.03;5033012;28;1507;-78
2023/10/09 09:53:23;;;;;;;;;;;;;;;17.30;100.00;101961.09;5051752;28;1675;-78
2023/10/09 09:55:55;;;;;;;;;;;;;;;17.34;100.00;101970.34;5058494;28;1237;-79
2023/10/09 09:58:23;;;;;;;;;;;;;;;17.33;100.00;101968.69;5052020;28;1616;-78
2023/10/09 10:00:53;;;;;;;;;;;;;;;17.39;100.00;101968.13;5056256;28;1965;-77
2023/10/09 10:03:18;;;;;;;;;;;;;;;17.42;100.00;101967.84;5051503;28;1189;-76
2023/10/09 10:05:46;;;;;;;;;;;;;;;17.46;100.00;101963.97;5047316;28;1307;-76
2023/10/09 10:08:14;;;;;;;;;;;;;;;17.50;100.00;101965.34;5033508;28;1283;-74
2023/10/09 10:10:55;;;;;;;;;;;;;;;17.55;100.00;101971.94;5047501;28;1212;-74
2023/10/09 10:13:39;;;;;;;;;;;;;;;17.61;100.00;101966.16;5030597;28;1337;-76
2023/10/09 10:19:21;;;;;;;;;;;;;;;17.67;100.00;101955.06;5052143;28;1038;-76
2023/10/09 10:21:49;;;;;;;;;;;;;;;17.71;100.00;101966.91;5045970;28;1982;-76
2023/10/09 10:25:32;;;;;;;;;;;;;;;17.74;100.00;101961.44;5051170;28;1248;-74
2023/10/09 10:27:26;;;;;;;;;;;;;;;17.80;100.00;101966.09;5026555;28;1220;-75
2023/10/09 10:30:23;;;;;;;;;;;;;;;17.83;100.00;101963.16;5051413;28;1308;-74
2023/10/09 10:32:51;;;;;;;;;;;;;;;17.89;100.00;101959.13;5018250;28;1197;-75
2023/10/09 10:35:20;;;;;;;;;;;;;;;18.00;100.00;101957.16;5045332;28;1228;-74
2023/10/09 10:38:10;;;;;;;;;;;;;;;17.98;100.00;101959.09;5029453;28;1230;-74
2023/10/09 10:43:19;;;;;;;;;;;;;;;18.08;100.00;101959.06;5048277;28;1009;-74
2023/10/09 10:45:44;;;;;;;;;;;;;;;18.10;100.00;101953.66;5048983;28;1152;-73
2023/10/09 10:48:22;;;;;;;;;;;;;;;18.16;100.00;101960.94;5056827;28;1295;-73
2023/10/09 10:50:57;;;;;;;;;;;;;;;18.36;100.00;101962.50;5054069;28;1121;-73
2023/10/09 10:53:27;;;;;;;;;;;;;;;18.25;100.00;101967.94;5048411;28;1108;-74
2023/10/09 10:55:57;;;;;;;;;;;;;;;18.29;100.00;101975.41;5054991;28;1055;-73
2023/10/09 10:58:34;;;;;;;;;;;;;;;18.36;100.00;101972.19;5039142;28;1230;-74
2023/10/09 11:01:14;;;;;;;;;;;;;;;18.42;100.00;101967.16;5057241;28;1898;-74
2023/10/09 11:03:55;;;;;;;;;;;;;;;18.44;100.00;101965.19;5040495;28;1232;-77
2023/10/09 11:06:37;;;;;;;;;;;;;;;18.53;100.00;101961.69;5033770;28;1507;-77
2023/10/09 11:09:35;;;;;;;;;;;;;;;18.63;100.00;101968.66;5049736;28;1359;-77
2023/10/09 11:11:49;;;;;;;;;;;;;;;18.70;100.00;101964.50;5048095;28;1237;-74
2023/10/09 11:14:15;;;;;;;;;;;;;;;18.75;100.00;101955.19;5051049;28;1631;-74
2023/10/09 11:16:50;;;;;;;;;;;;;;;18.82;100.00;101965.91;5028704;28;1409;-74
2023/10/09 11:22:28;;;;;;;;;;;;;;;18.97;100.00;101955.66;5045893;28;1898;-77
2023/10/09 11:24:46;;;;;;;;;;;;;;;19.05;100.00;101963.63;5050272;28;1355;-77
2023/10/09 11:27:18;;;;;;;;;;;;;;;19.14;100.00;101962.69;5047521;28;1260;-77
2023/10/09 11:32:23;;;;;;;;;;;;;;;19.28;98.27;101949.00;5046178;28;1249;-77
2023/10/09 11:34:53;;;;;;;;;;;;;;;19.06;98.13;101955.59;5041669;28;1180;-77
2023/10/09 11:39:56;;;;;;;;;;;;;;;19.03;97.17;101955.88;5046504;28;1257;-73
2023/10/09 11:42:35;;;;;;;;;;;;;;;19.12;94.96;101954.16;5045656;28;1957;-77
2023/10/09 11:45:04;;;;;;;;;;;;;;;18.97;95.95;101959.13;5026483;28;1075;-77
2023/10/09 11:47:36;;;;;;;;;;;;;;;19.04;95.83;101957.56;5043473;28;1110;-77
2023/10/09 11:50:14;;;;;;;;;;;;;;;18.99;96.36;101959.00;5047703;28;1074;-77
2023/10/09 11:53:08;;;;;;;;;;;;;;;18.97;96.81;101951.22;5044055;28;1487;-77
2023/10/09 11:55:34;;;;;;;;;;;;;;;19.01;96.44;101957.84;5032823;28;1324;-77
2023/10/09 11:58:02;;;;;;;;;;;;;;;19.05;96.75;101953.94;5051597;28;1522;-74
2023/10/09 12:00:31;;;;;;;;;;;;;;;19.10;96.35;101961.38;5035533;28;1906;-75
2023/10/09 12:02:56;;;;;;;;;;;;;;;19.13;95.68;101960.22;5052870;28;1365;-75
2023/10/09 12:05:22;;;;;;;;;;;;;;;19.14;95.72;101961.88;5045342;28;1254;-76
2023/10/09 12:07:54;;;;;;;;;;;;;;;19.23;94.88;101947.81;5029469;28;1387;-76
2023/10/09 12:10:24;;;;;;;;;;;;;;;19.23;95.13;101958.34;5026482;28;1173;-76
2023/10/09 12:12:50;;;;;;;;;;;;;;;19.35;94.01;101954.47;5031135;28;1301;-77
2023/10/09 12:15:17;;;;;;;;;;;;;;;19.32;94.31;101954.75;5049508;28;1230;-76
2023/10/09 12:17:44;;;;;;;;;;;;;;;19.42;93.39;101944.97;5047581;28;1160;-76
2023/10/09 12:20:29;;;;;;;;;;;;;;;19.43;92.04;101943.16;5052065;28;1890;-74
2023/10/09 12:22:57;;;;;;;;;;;;;;;19.42;93.86;101939.69;5049428;28;1471;-77
2023/10/09 12:25:26;;;;;;;;;;;;;;;19.47;93.33;101934.81;5025776;28;1210;-77
2023/10/09 12:27:54;;;;;;;;;;;;;;;19.50;93.84;101931.88;5047166;28;991;-76
2023/10/09 12:30:26;;;;;;;;;;;;;;;19.53;92.30;101923.66;5053742;28;1169;-76
2023/10/09 12:32:52;;;;;;;;;;;;;;;19.48;92.38;101933.81;5047586;28;953;-73
2023/10/09 12:35:17;;;;;;;;;;;;;;;19.48;92.19;101927.72;5048761;28;1101;-75
2023/10/09 12:37:42;;;;;;;;;;;;;;;19.47;92.43;101926.91;5041646;28;1029;-77
2023/10/09 12:40:10;;;;;;;;;;;;;;;19.48;92.46;101923.28;5044294;28;1973;-77
2023/10/09 12:42:35;;;;;;;;;;;;;;;19.52;92.21;101924.63;5045073;28;1017;-75
2023/10/09 12:45:07;;;;;;;;;;;;;;;19.53;92.65;101921.00;5050856;28;1062;-74
2023/10/09 12:47:33;;;;;;;;;;;;;;;19.55;92.41;101908.50;5051763;28;1131;-78
2023/10/09 12:49:58;;;;;;;;;;;;;;;19.56;91.75;101922.53;5053952;28;1123;-75
2023/10/09 12:52:29;;;;;;;;;;;;;;;19.55;92.12;101923.47;5046812;28;970;-76
2023/10/09 12:54:54;;;;;;;;;;;;;;;19.58;90.66;101928.44;5058669;28;1005;-76
2023/10/09 12:57:19;;;;;;;;;;;;;;;19.51;91.66;101927.44;5055950;28;1085;-75
2023/10/09 12:59:45;;;;;;;;;;;;;;;19.51;91.43;101928.25;5059403;28;1166;-78
2023/10/09 13:02:27;;;;;;;;;;;;;;;19.54;90.88;101927.91;5058523;28;1955;-77
2023/10/09 13:04:53;;;;;;;;;;;;;;;19.62;90.51;101925.38;5053593;28;1259;-77
2023/10/09 13:07:21;;;;;;;;;;;;;;;19.57;91.24;101932.88;5051716;28;1197;-76
2023/10/09 13:10:08;;;;;;;;;;;;;;;19.63;91.14;101934.91;5053059;28;1344;-75
2023/10/09 13:12:32;;;;;;;;;;;;;;;19.66;91.00;101946.09;5057517;28;1380;-78
2023/10/09 13:14:57;;;;;;;;;;;;;;;19.66;89.81;101938.22;5060669;28;1153;-78
2023/10/09 13:17:26;;;;;;;;;;;;;;;19.65;89.25;101944.47;5054370;28;1184;-75
2023/10/09 13:19:52;;;;;;;;;;;;;;;19.65;89.69;101957.63;5056476;28;1408;-74
2023/10/09 13:22:17;;;;;;;;;;;;;;;19.63;89.69;101958.59;5037082;28;1942;-75
2023/10/09 13:24:43;;;;;;;;;;;;;;;19.68;90.46;101949.41;5043341;28;1471;-78
2023/10/09 13:27:09;;;;;;;;;;;;;;;19.72;90.33;101953.38;5054924;28;1266;-77
2023/10/09 13:29:35;;;;;;;;;;;;;;;19.79;89.42;101951.78;5054671;28;1498;-78
2023/10/09 13:32:02;;;;;;;;;;;;;;;19.77;89.79;101959.00;5037725;28;1308;-78
2023/10/09 13:34:28;;;;;;;;;;;;;;;19.77;86.74;101951.91;5056131;28;1264;-77
2023/10/09 13:36:53;;;;;;;;;;;;;;;19.77;88.91;101948.47;5038981;28;1233;-78
2023/10/09 13:39:25;;;;;;;;;;;;;;;19.78;88.98;101944.84;5059051;28;1564;-78
2023/10/09 13:41:50;;;;;;;;;;;;;;;19.77;88.91;101951.09;5037637;28;1894;-78
2023/10/09 13:44:15;;;;;;;;;;;;;;;19.77;88.43;101949.28;5040120;28;1344;-78
2023/10/09 13:46:44;;;;;;;;;;;;;;;19.74;86.16;101948.78;5053476;28;1246;-78
2023/10/09 13:49:13;;;;;;;;;;;;;;;19.73;87.43;101947.16;5049863;28;1209;-78
2023/10/09 13:51:44;;;;;;;;;;;;;;;19.74;87.79;101948.78;5050929;28;1198;-77
2023/10/09 13:54:28;;;;;;;;;;;;;;;19.82;86.77;101947.00;5049958;28;973;-79
2023/10/09 13:56:53;;;;;;;;;;;;;;;19.74;87.38;101943.53;5044974;28;1254;-76
2023/10/09 13:59:23;;;;;;;;;;;;;;;19.76;87.24;101941.53;5050905;28;1737;-75
2023/10/09 14:01:48;;;;;;;;;;;;;;;19.77;87.44;101949.28;5033755;28;2068;-75
2023/10/09 14:04:23;;;;;;;;;;;;;;;19.76;87.04;101942.38;5034074;28;1550;-75
2023/10/09 14:06:49;;;;;;;;;;;;;;;19.75;86.18;101945.16;5041085;28;1299;-75
2023/10/09 14:12:06;;;;;;;;;;;;;;;19.74;86.60;101933.00;5045718;28;1167;-76
2023/10/09 14:14:38;;;;;;;;;;;;;;;19.78;86.50;101932.50;5053001;28;1282;-77
2023/10/09 14:17:11;;;;;;;;;;;;;;;19.73;86.38;101931.34;5044816;28;1257;-75
2023/10/09 14:19:37;;;;;;;;;;;;;;;19.66;86.65;101941.66;5051340;28;1225;-75
2023/10/09 14:22:05;;;;;;;;;;;;;;;19.62;86.05;101946.44;5047628;28;1981;-75
2023/10/09 14:24:32;;;;;;;;;;;;;;;19.58;87.01;101931.06;5034658;28;1491;-75
2023/10/09 14:26:58;;;;;;;;;;;;;;;19.59;86.62;101924.84;5056769;28;1244;-76
2023/10/09 14:29:26;;;;;;;;;;;;;;;19.57;87.59;101932.88;5032645;28;1283;-75
2023/10/09 14:32:00;;;;;;;;;;;;;;;19.59;87.27;101938.84;5053383;28;1065;-78
2023/10/09 14:34:29;;;;;;;;;;;;;;;19.60;87.16;101931.75;5046162;28;1285;-77
2023/10/09 14:36:55;;;;;;;;;;;;;;;19.60;87.93;101943.13;5051564;28;1227;-78
2023/10/09 14:39:26;;;;;;;;;;;;;;;19.63;88.33;101942.81;5047965;28;1391;-78
2023/10/09 14:41:51;;;;;;;;;;;;;;;19.63;87.23;101937.56;5045487;28;1918;-77
2023/10/09 14:44:17;;;;;;;;;;;;;;;19.62;87.83;101929.81;5049444;28;1053;-76
2023/10/09 14:46:42;;;;;;;;;;;;;;;19.63;87.67;101937.56;5052239;28;1055;-75
2023/10/09 14:49:13;;;;;;;;;;;;;;;19.63;87.73;101932.28;5037706;28;1220;-75
2023/10/09 14:51:38;;;;;;;;;;;;;;;19.62;88.26;101933.28;5029835;28;1263;-78
2023/10/09 14:54:07;;;;;;;;;;;;;;;19.65;87.90;101931.28;5043044;28;1160;-78
2023/10/09 14:56:36;;;;;;;;;;;;;;;19.62;88.50;101925.38;5041605;28;1165;-75
2023/10/09 14:59:01;;;;;;;;;;;;;;;19.61;87.83;101929.00;5045874;28;1174;-77
2023/10/09 15:01:30;;;;;;;;;;;;;;;19.59;87.94;101930.94;5044295;28;1975;-78
2023/10/09 15:03:57;;;;;;;;;;;;;;;19.55;88.91;101937.47;5027558;28;1277;-78
2023/10/09 15:06:24;;;;;;;;;;;;;;;19.55;88.40;101939.28;5043522;28;1272;-75
2023/10/09 15:08:49;;;;;;;;;;;;;;;19.53;89.35;101942.06;5029758;28;1439;-76
2023/10/09 15:11:14;;;;;;;;;;;;;;;19.53;89.45;101941.25;5051794;28;1035;-75
2023/10/09 15:13:40;;;;;;;;;;;;;;;19.53;88.74;101941.25;5032489;28;1298;-76
2023/10/09 15:16:05;;;;;;;;;;;;;;;19.47;89.20;101939.25;5055943;28;1171;-78
2023/10/09 15:18:33;;;;;;;;;;;;;;;19.46;89.42;101938.41;5046731;28;1154;-78
2023/10/09 15:20:59;;;;;;;;;;;;;;;19.45;89.92;101939.41;5029185;28;1961;-78
2023/10/09 15:23:24;;;;;;;;;;;;;;;19.43;89.94;101938.72;5052855;28;1467;-78
2023/10/09 15:25:51;;;;;;;;;;;;;;;19.43;90.33;101935.25;5051893;28;1487;-78
2023/10/09 15:28:19;;;;;;;;;;;;;;;19.43;90.26;101941.34;5048490;28;1135;-78